sensor_id;sensor_type;location;lat;lon;timestamp;P1;durP1;ratioP1;P2;durP2;ratioP2
46505;SDS011;32220;49.808;9.968;2024-02-15T09:13:33;3.53;;;2.13;;
46505;SDS011;32220;49.808;9.968;2024-02-15T09:16:03;3.87;;;2.40;;
46505;SDS011;32220;49.808;9.968;2024-02-15T09:18:31;3.17;;;2.17;;
46505;SDS011;32220;49.808;9.968;2024-02-15T09:20:59;2.57;;;2.30;;
46505;SDS011;32220;49.808;9.968;2024-02-15T09:23:27;3.77;;;2.20;;
46505;SDS011;32220;49.808;9.968;2024-02-15T09:25:54;3.50;;;1.77;;
46505;SDS011;32220;49.808;9.968;2024-02-15T09:28:22;4.00;;;2.10;;
46505;SDS011;32220;49.808;9.968;2024-02-15T09:30:51;3.50;;;2.30;;
46505;SDS011;32220;49.808;9.968;2024-02-15T09:33:19;2.80;;;2.00;;
46505;SDS011;32220;49.808;9.968;2024-02-15T09:35:46;2.70;;;2.10;;
46505;SDS011;32220;49.808;9.968;2024-02-15T09:38:14;2.30;;;1.93;;
46505;SDS011;32220;49.808;9.968;2024-02-15T09:40:42;3.47;;;1.67;;
46505;SDS011;32220;49.808;9.968;2024-02-15T09:43:10;2.87;;;1.20;;
46505;SDS011;32220;49.808;9.968;2024-02-15T09:45:40;2.07;;;1.10;;
46505;SDS011;32220;49.808;9.968;2024-02-15T09:48:10;1.97;;;1.53;;
46505;SDS011;32220;49.808;9.968;2024-02-15T09:50:39;2.33;;;1.30;;
46505;SDS011;32220;49.808;9.968;2024-02-15T09:53:09;2.00;;;1.20;;
46505;SDS011;32220;49.808;9.968;2024-02-15T09:55:37;2.83;;;1.20;;
46505;SDS011;32220;49.808;9.968;2024-02-15T09:58:07;1.90;;;1.10;;
46505;SDS011;32220;49.808;9.968;2024-02-15T10:00:35;1.40;;;1.07;;
46505;SDS011;32220;49.808;9.968;2024-02-15T10:03:05;1.53;;;1.27;;
46505;SDS011;32220;49.808;9.968;2024-02-15T10:05:35;3.87;;;1.30;;
46505;SDS011;32220;49.808;9.968;2024-02-15T10:08:06;1.37;;;0.90;;
46505;SDS011;32220;49.808;9.968;2024-02-15T10:10:37;1.77;;;1.13;;
46505;SDS011;32220;49.808;9.968;2024-02-15T10:13:04;1.70;;;1.43;;
46505;SDS011;32220;49.808;9.968;2024-02-15T10:15:33;1.63;;;1.10;;
46505;SDS011;32220;49.808;9.968;2024-02-15T10:18:02;2.27;;;1.10;;
46505;SDS011;32220;49.808;9.968;2024-02-15T10:20:31;3.37;;;1.30;;
46505;SDS011;32220;49.808;9.968;2024-02-15T10:23:11;1.60;;;1.50;;
46505;SDS011;32220;49.808;9.968;2024-02-15T10:25:43;2.10;;;1.10;;
46505;SDS011;32220;49.808;9.968;2024-02-15T10:28:11;4.27;;;1.03;;
46505;SDS011;32220;49.808;9.968;2024-02-15T10:30:41;1.23;;;0.90;;
46505;SDS011;32220;49.808;9.968;2024-02-15T10:33:17;1.83;;;1.00;;
46505;SDS011;32220;49.808;9.968;2024-02-15T10:35:46;1.57;;;1.10;;
46505;SDS011;32220;49.808;9.968;2024-02-15T10:38:15;1.30;;;1.03;;
46505;SDS011;32220;49.808;9.968;2024-02-15T10:40:43;1.40;;;1.00;;
46505;SDS011;32220;49.808;9.968;2024-02-15T10:43:11;1.70;;;1.07;;
46505;SDS011;32220;49.808;9.968;2024-02-15T10:45:41;0.73;;;0.73;;
46505;SDS011;32220;49.808;9.968;2024-02-15T10:48:09;2.20;;;1.43;;
46505;SDS011;32220;49.808;9.968;2024-02-15T10:50:39;2.90;;;1.20;;
46505;SDS011;32220;49.808;9.968;2024-02-15T10:53:08;2.60;;;1.23;;
46505;SDS011;32220;49.808;9.968;2024-02-15T10:55:52;2.40;;;1.30;;
46505;SDS011;32220;49.808;9.968;2024-02-15T10:58:25;1.30;;;1.00;;
46505;SDS011;32220;49.808;9.968;2024-02-15T11:01:01;1.67;;;1.20;;
46505;SDS011;32220;49.808;9.968;2024-02-15T11:03:34;1.80;;;1.10;;
46505;SDS011;32220;49.808;9.968;2024-02-15T11:06:03;1.35;;;1.20;;
46505;SDS011;32220;49.808;9.968;2024-02-15T11:08:33;2.65;;;1.23;;
46505;SDS011;32220;49.808;9.968;2024-02-15T11:11:03;1.77;;;1.05;;
46505;SDS011;32220;49.808;9.968;2024-02-15T11:13:31;2.85;;;1.25;;
46505;SDS011;32220;49.808;9.968;2024-02-15T11:15:59;2.63;;;1.30;;
46505;SDS011;32220;49.808;9.968;2024-02-15T11:18:43;2.15;;;1.00;;
46505;SDS011;32220;49.808;9.968;2024-02-15T11:21:15;2.42;;;1.50;;
46505;SDS011;32220;49.808;9.968;2024-02-15T11:23:43;2.00;;;1.30;;
46505;SDS011;32220;49.808;9.968;2024-02-15T11:35:06;1.70;;;0.95;;
46505;SDS011;32220;49.808;9.968;2024-02-15T11:37:54;1.10;;;0.82;;
46505;SDS011;32220;49.808;9.968;2024-02-15T11:40:24;1.02;;;0.60;;
46505;SDS011;32220;49.808;9.968;2024-02-15T11:42:56;2.08;;;0.88;;
46505;SDS011;32220;49.808;9.968;2024-02-15T11:45:44;1.17;;;0.88;;
46505;SDS011;32220;49.808;9.968;2024-02-15T11:48:16;2.03;;;0.77;;
46505;SDS011;32220;49.808;9.968;2024-02-15T11:50:46;1.98;;;0.98;;
46505;SDS011;32220;49.808;9.968;2024-02-15T11:56:06;2.08;;;0.88;;
46505;SDS011;32220;49.808;9.968;2024-02-15T11:58:37;2.22;;;0.85;;
46505;SDS011;32220;49.808;9.968;2024-02-15T12:01:20;2.30;;;0.95;;
46505;SDS011;32220;49.808;9.968;2024-02-15T12:04:24;2.15;;;0.80;;
46505;SDS011;32220;49.808;9.968;2024-02-15T12:07:10;1.02;;;0.80;;
46505;SDS011;32220;49.808;9.968;2024-02-15T12:10:00;2.50;;;0.80;;
46505;SDS011;32220;49.808;9.968;2024-02-15T12:12:53;1.05;;;0.70;;
46505;SDS011;32220;49.808;9.968;2024-02-15T12:15:41;0.65;;;0.50;;
46505;SDS011;32220;49.808;9.968;2024-02-15T12:18:51;2.47;;;0.80;;
46505;SDS011;32220;49.808;9.968;2024-02-15T12:24:53;0.82;;;0.40;;
46505;SDS011;32220;49.808;9.968;2024-02-15T12:33:23;1.55;;;0.60;;
46505;SDS011;32220;49.808;9.968;2024-02-15T12:36:08;1.20;;;0.68;;
46505;SDS011;32220;49.808;9.968;2024-02-15T12:38:36;0.77;;;0.60;;
46505;SDS011;32220;49.808;9.968;2024-02-15T12:41:16;1.27;;;0.73;;
46505;SDS011;32220;49.808;9.968;2024-02-15T12:43:45;1.40;;;0.68;;
46505;SDS011;32220;49.808;9.968;2024-02-15T12:46:19;1.48;;;0.68;;
46505;SDS011;32220;49.808;9.968;2024-02-15T12:48:47;2.00;;;0.60;;
46505;SDS011;32220;49.808;9.968;2024-02-15T12:51:16;1.33;;;0.70;;
46505;SDS011;32220;49.808;9.968;2024-02-15T12:53:44;0.95;;;0.63;;
46505;SDS011;32220;49.808;9.968;2024-02-15T12:58:46;1.27;;;0.60;;
46505;SDS011;32220;49.808;9.968;2024-02-15T13:00:30;1.67;;;0.80;;
46505;SDS011;32220;49.808;9.968;2024-02-15T13:06:07;1.05;;;0.60;;
46505;SDS011;32220;49.808;9.968;2024-02-15T13:08:43;0.45;;;0.40;;
46505;SDS011;32220;49.808;9.968;2024-02-15T13:11:14;2.20;;;0.70;;
46505;SDS011;32220;49.808;9.968;2024-02-15T13:13:56;0.93;;;0.70;;
46505;SDS011;32220;49.808;9.968;2024-02-15T13:16:25;2.03;;;0.70;;
46505;SDS011;32220;49.808;9.968;2024-02-15T13:18:56;1.27;;;0.80;;
46505;SDS011;32220;49.808;9.968;2024-02-15T13:21:26;1.40;;;0.80;;
46505;SDS011;32220;49.808;9.968;2024-02-15T13:23:56;1.43;;;0.53;;
46505;SDS011;32220;49.808;9.968;2024-02-15T13:26:40;0.83;;;0.70;;
46505;SDS011;32220;49.808;9.968;2024-02-15T13:29:08;0.57;;;0.50;;
46505;SDS011;32220;49.808;9.968;2024-02-15T13:31:44;1.47;;;0.57;;
46505;SDS011;32220;49.808;9.968;2024-02-15T13:34:13;1.50;;;0.80;;
46505;SDS011;32220;49.808;9.968;2024-02-15T13:39:28;1.53;;;0.67;;
46505;SDS011;32220;49.808;9.968;2024-02-15T13:41:59;0.90;;;0.50;;
46505;SDS011;32220;49.808;9.968;2024-02-15T13:44:28;1.27;;;0.60;;
46505;SDS011;32220;49.808;9.968;2024-02-15T13:46:57;0.87;;;0.60;;
46505;SDS011;32220;49.808;9.968;2024-02-15T13:49:26;1.53;;;0.80;;
46505;SDS011;32220;49.808;9.968;2024-02-15T13:51:56;1.03;;;0.53;;
46505;SDS011;32220;49.808;9.968;2024-02-15T13:54:29;1.60;;;0.70;;
46505;SDS011;32220;49.808;9.968;2024-02-15T13:57:00;1.67;;;0.70;;
46505;SDS011;32220;49.808;9.968;2024-02-15T13:59:28;1.13;;;0.50;;
46505;SDS011;32220;49.808;9.968;2024-02-15T14:01:56;1.27;;;0.60;;
46505;SDS011;32220;49.808;9.968;2024-02-15T14:04:24;2.40;;;0.77;;
46505;SDS011;32220;49.808;9.968;2024-02-15T14:06:55;3.73;;;1.27;;
46505;SDS011;32220;49.808;9.968;2024-02-15T14:09:26;1.83;;;0.70;;
46505;SDS011;32220;49.808;9.968;2024-02-15T14:11:56;2.17;;;0.90;;
46505;SDS011;32220;49.808;9.968;2024-02-15T14:14:24;1.23;;;0.67;;
46505;SDS011;32220;49.808;9.968;2024-02-15T14:16:53;0.60;;;0.57;;
46505;SDS011;32220;49.808;9.968;2024-02-15T14:19:20;1.97;;;0.63;;
46505;SDS011;32220;49.808;9.968;2024-02-15T14:21:52;1.27;;;0.50;;
46505;SDS011;32220;49.808;9.968;2024-02-15T14:24:20;1.87;;;0.63;;
46505;SDS011;32220;49.808;9.968;2024-02-15T14:26:48;0.90;;;0.70;;
46505;SDS011;32220;49.808;9.968;2024-02-15T14:29:17;2.80;;;0.53;;
46505;SDS011;32220;49.808;9.968;2024-02-15T14:31:52;1.60;;;0.50;;
46505;SDS011;32220;49.808;9.968;2024-02-15T14:34:37;1.47;;;0.77;;
46505;SDS011;32220;49.808;9.968;2024-02-15T14:37:07;2.13;;;0.63;;
46505;SDS011;32220;49.808;9.968;2024-02-15T14:39:39;1.67;;;0.67;;
46505;SDS011;32220;49.808;9.968;2024-02-15T14:42:07;2.30;;;0.57;;
46505;SDS011;32220;49.808;9.968;2024-02-15T14:44:36;1.30;;;0.70;;
46505;SDS011;32220;49.808;9.968;2024-02-15T14:47:04;1.37;;;0.70;;
46505;SDS011;32220;49.808;9.968;2024-02-15T14:49:33;1.47;;;0.60;;
46505;SDS011;32220;49.808;9.968;2024-02-15T14:52:02;0.97;;;0.60;;
46505;SDS011;32220;49.808;9.968;2024-02-15T14:54:30;1.73;;;0.63;;
46505;SDS011;32220;49.808;9.968;2024-02-15T14:57:02;0.70;;;0.70;;
46505;SDS011;32220;49.808;9.968;2024-02-15T14:59:31;1.47;;;0.50;;
46505;SDS011;32220;49.808;9.968;2024-02-15T15:02:02;0.80;;;0.70;;
46505;SDS011;32220;49.808;9.968;2024-02-15T15:04:34;1.57;;;0.87;;
46505;SDS011;32220;49.808;9.968;2024-02-15T15:07:23;1.13;;;0.67;;
46505;SDS011;32220;49.808;9.968;2024-02-15T15:10:16;1.93;;;1.10;;
46505;SDS011;32220;49.808;9.968;2024-02-15T15:20:13;1.33;;;1.00;;
46505;SDS011;32220;49.808;9.968;2024-02-15T15:22:43;1.17;;;0.90;;
46505;SDS011;32220;49.808;9.968;2024-02-15T15:25:16;1.30;;;1.07;;
46505;SDS011;32220;49.808;9.968;2024-02-15T15:31:45;1.20;;;1.00;;
46505;SDS011;32220;49.808;9.968;2024-02-15T15:34:13;0.97;;;0.70;;
46505;SDS011;32220;49.808;9.968;2024-02-15T15:36:53;0.80;;;0.60;;
46505;SDS011;32220;49.808;9.968;2024-02-15T15:39:23;1.77;;;0.80;;
46505;SDS011;32220;49.808;9.968;2024-02-15T15:41:54;1.13;;;0.80;;
46505;SDS011;32220;49.808;9.968;2024-02-15T15:44:22;1.17;;;0.90;;
46505;SDS011;32220;49.808;9.968;2024-02-15T15:46:53;1.13;;;0.80;;
46505;SDS011;32220;49.808;9.968;2024-02-15T15:49:23;0.80;;;0.80;;
46505;SDS011;32220;49.808;9.968;2024-02-15T15:51:54;1.13;;;1.03;;
46505;SDS011;32220;49.808;9.968;2024-02-15T15:54:22;2.00;;;0.73;;
46505;SDS011;32220;49.808;9.968;2024-02-15T15:56:49;1.80;;;1.00;;
46505;SDS011;32220;49.808;9.968;2024-02-15T15:59:17;0.93;;;0.80;;
46505;SDS011;32220;49.808;9.968;2024-02-15T16:01:48;1.93;;;1.10;;
46505;SDS011;32220;49.808;9.968;2024-02-15T16:04:16;1.80;;;1.20;;
46505;SDS011;32220;49.808;9.968;2024-02-15T16:06:44;3.30;;;1.47;;
46505;SDS011;32220;49.808;9.968;2024-02-15T16:09:13;2.97;;;1.50;;
46505;SDS011;32220;49.808;9.968;2024-02-15T16:11:41;2.60;;;1.47;;
46505;SDS011;32220;49.808;9.968;2024-02-15T16:14:09;3.57;;;1.23;;
46505;SDS011;32220;49.808;9.968;2024-02-15T16:16:38;3.10;;;1.20;;
46505;SDS011;32220;49.808;9.968;2024-02-15T16:19:08;2.47;;;1.17;;
46505;SDS011;32220;49.808;9.968;2024-02-15T16:21:38;1.47;;;1.17;;
46505;SDS011;32220;49.808;9.968;2024-02-15T16:24:06;2.63;;;1.13;;
46505;SDS011;32220;49.808;9.968;2024-02-15T16:26:37;1.83;;;0.87;;
46505;SDS011;32220;49.808;9.968;2024-02-15T16:29:04;2.17;;;1.17;;
46505;SDS011;32220;49.808;9.968;2024-02-15T16:31:32;2.13;;;1.20;;
46505;SDS011;32220;49.808;9.968;2024-02-15T16:34:00;2.57;;;1.30;;
46505;SDS011;32220;49.808;9.968;2024-02-15T16:36:27;1.30;;;0.97;;
46505;SDS011;32220;49.808;9.968;2024-02-15T16:38:55;1.80;;;0.90;;
46505;SDS011;32220;49.808;9.968;2024-02-15T16:41:22;1.47;;;1.17;;
46505;SDS011;32220;49.808;9.968;2024-02-15T16:43:54;2.17;;;1.40;;
46505;SDS011;32220;49.808;9.968;2024-02-15T16:46:22;4.13;;;1.13;;
46505;SDS011;32220;49.808;9.968;2024-02-15T16:48:50;1.63;;;1.00;;
46505;SDS011;32220;49.808;9.968;2024-02-15T16:51:18;1.30;;;0.83;;
46505;SDS011;32220;49.808;9.968;2024-02-15T16:53:47;1.23;;;0.90;;
46505;SDS011;32220;49.808;9.968;2024-02-15T16:56:15;1.20;;;1.10;;
46505;SDS011;32220;49.808;9.968;2024-02-15T16:58:44;0.83;;;0.80;;
46505;SDS011;32220;49.808;9.968;2024-02-15T17:01:16;2.63;;;1.67;;
46505;SDS011;32220;49.808;9.968;2024-02-15T17:03:43;4.10;;;2.57;;
46505;SDS011;32220;49.808;9.968;2024-02-15T17:06:11;3.60;;;2.33;;
46505;SDS011;32220;49.808;9.968;2024-02-15T17:08:39;2.57;;;2.17;;
46505;SDS011;32220;49.808;9.968;2024-02-15T17:11:07;3.80;;;1.97;;
46505;SDS011;32220;49.808;9.968;2024-02-15T17:13:35;1.90;;;1.53;;
46505;SDS011;32220;49.808;9.968;2024-02-15T17:16:07;2.00;;;1.80;;
46505;SDS011;32220;49.808;9.968;2024-02-15T17:18:36;3.07;;;1.50;;
46505;SDS011;32220;49.808;9.968;2024-02-15T17:21:04;1.70;;;1.33;;
46505;SDS011;32220;49.808;9.968;2024-02-15T17:23:32;1.90;;;1.47;;
46505;SDS011;32220;49.808;9.968;2024-02-15T17:25:59;2.67;;;1.53;;
46505;SDS011;32220;49.808;9.968;2024-02-15T17:28:27;2.80;;;1.83;;
46505;SDS011;32220;49.808;9.968;2024-02-15T17:30:55;1.60;;;1.50;;
46505;SDS011;32220;49.808;9.968;2024-02-15T17:33:24;3.23;;;1.77;;
46505;SDS011;32220;49.808;9.968;2024-02-15T17:35:55;1.83;;;1.67;;
46505;SDS011;32220;49.808;9.968;2024-02-15T17:38:23;2.30;;;1.40;;
46505;SDS011;32220;49.808;9.968;2024-02-15T17:40:50;1.93;;;1.40;;
46505;SDS011;32220;49.808;9.968;2024-02-15T17:43:18;2.50;;;1.57;;
46505;SDS011;32220;49.808;9.968;2024-02-15T17:45:46;4.10;;;1.73;;
46505;SDS011;32220;49.808;9.968;2024-02-15T17:48:15;2.93;;;1.90;;
46505;SDS011;32220;49.808;9.968;2024-02-15T17:50:46;2.83;;;1.97;;
46505;SDS011;32220;49.808;9.968;2024-02-15T17:53:17;4.20;;;2.53;;
46505;SDS011;32220;49.808;9.968;2024-02-15T17:55:44;3.17;;;2.50;;
46505;SDS011;32220;49.808;9.968;2024-02-15T17:58:16;4.30;;;2.73;;
46505;SDS011;32220;49.808;9.968;2024-02-15T18:00:44;3.87;;;2.80;;
46505;SDS011;32220;49.808;9.968;2024-02-15T18:03:12;4.50;;;3.07;;
46505;SDS011;32220;49.808;9.968;2024-02-15T18:05:40;3.20;;;2.67;;
46505;SDS011;32220;49.808;9.968;2024-02-15T18:08:12;3.87;;;2.83;;
46505;SDS011;32220;49.808;9.968;2024-02-15T18:10:42;3.93;;;2.87;;
46505;SDS011;32220;49.808;9.968;2024-02-15T18:13:11;4.80;;;3.20;;
46505;SDS011;32220;49.808;9.968;2024-02-15T18:15:39;3.87;;;2.83;;
46505;SDS011;32220;49.808;9.968;2024-02-15T18:18:10;3.87;;;3.10;;
46505;SDS011;32220;49.808;9.968;2024-02-15T18:20:38;3.33;;;3.00;;
46505;SDS011;32220;49.808;9.968;2024-02-15T18:23:07;3.50;;;3.20;;
46505;SDS011;32220;49.808;9.968;2024-02-15T18:25:35;7.13;;;3.63;;
46505;SDS011;32220;49.808;9.968;2024-02-15T18:28:05;5.27;;;3.97;;
46505;SDS011;32220;49.808;9.968;2024-02-15T18:30:33;5.63;;;4.80;;
46505;SDS011;32220;49.808;9.968;2024-02-15T18:33:09;5.80;;;4.20;;
46505;SDS011;32220;49.808;9.968;2024-02-15T18:35:36;6.03;;;4.53;;
46505;SDS011;32220;49.808;9.968;2024-02-15T18:38:07;6.63;;;4.30;;
46505;SDS011;32220;49.808;9.968;2024-02-15T18:40:35;5.03;;;4.20;;
46505;SDS011;32220;49.808;9.968;2024-02-15T18:43:05;5.23;;;3.90;;
46505;SDS011;32220;49.808;9.968;2024-02-15T18:45:33;4.30;;;3.73;;
46505;SDS011;32220;49.808;9.968;2024-02-15T18:48:02;5.67;;;3.63;;
46505;SDS011;32220;49.808;9.968;2024-02-15T18:50:32;5.23;;;3.23;;
46505;SDS011;32220;49.808;9.968;2024-02-15T18:53:01;4.70;;;3.73;;
46505;SDS011;32220;49.808;9.968;2024-02-15T18:55:30;5.30;;;3.93;;
46505;SDS011;32220;49.808;9.968;2024-02-15T18:58:00;4.13;;;3.37;;
46505;SDS011;32220;49.808;9.968;2024-02-15T19:00:29;4.37;;;3.30;;
46505;SDS011;32220;49.808;9.968;2024-02-15T19:02:58;3.80;;;3.40;;
46505;SDS011;32220;49.808;9.968;2024-02-15T19:05:27;6.33;;;3.53;;
46505;SDS011;32220;49.808;9.968;2024-02-15T19:07:55;4.37;;;3.37;;
46505;SDS011;32220;49.808;9.968;2024-02-15T19:10:22;4.33;;;3.93;;
46505;SDS011;32220;49.808;9.968;2024-02-15T19:12:50;5.60;;;3.50;;
46505;SDS011;32220;49.808;9.968;2024-02-15T19:15:18;4.87;;;3.33;;
46505;SDS011;32220;49.808;9.968;2024-02-15T19:17:48;5.03;;;4.20;;
46505;SDS011;32220;49.808;9.968;2024-02-15T19:20:15;5.20;;;3.63;;
46505;SDS011;32220;49.808;9.968;2024-02-15T19:22:43;6.43;;;4.60;;
46505;SDS011;32220;49.808;9.968;2024-02-15T19:25:11;4.43;;;3.40;;
46505;SDS011;32220;49.808;9.968;2024-02-15T19:27:43;6.83;;;4.50;;
46505;SDS011;32220;49.808;9.968;2024-02-15T19:30:12;6.47;;;4.17;;
46505;SDS011;32220;49.808;9.968;2024-02-15T19:32:40;5.67;;;3.83;;
46505;SDS011;32220;49.808;9.968;2024-02-15T19:35:09;3.73;;;2.80;;
46505;SDS011;32220;49.808;9.968;2024-02-15T19:37:36;6.43;;;3.70;;
46505;SDS011;32220;49.808;9.968;2024-02-15T19:40:05;4.00;;;3.30;;
46505;SDS011;32220;49.808;9.968;2024-02-15T19:42:37;6.17;;;4.20;;
46505;SDS011;32220;49.808;9.968;2024-02-15T19:45:05;5.80;;;3.90;;
46505;SDS011;32220;49.808;9.968;2024-02-15T19:47:34;7.33;;;3.93;;
46505;SDS011;32220;49.808;9.968;2024-02-15T19:50:01;4.77;;;3.47;;
46505;SDS011;32220;49.808;9.968;2024-02-15T19:52:31;4.57;;;3.50;;
46505;SDS011;32220;49.808;9.968;2024-02-15T19:54:59;5.00;;;3.37;;
46505;SDS011;32220;49.808;9.968;2024-02-15T19:57:26;5.67;;;3.70;;
46505;SDS011;32220;49.808;9.968;2024-02-15T19:59:54;6.50;;;4.73;;
46505;SDS011;32220;49.808;9.968;2024-02-15T20:02:22;7.00;;;4.83;;
46505;SDS011;32220;49.808;9.968;2024-02-15T20:04:50;5.60;;;4.23;;
46505;SDS011;32220;49.808;9.968;2024-02-15T20:07:17;6.40;;;4.27;;
46505;SDS011;32220;49.808;9.968;2024-02-15T20:09:50;4.60;;;3.70;;
46505;SDS011;32220;49.808;9.968;2024-02-15T20:12:17;5.07;;;3.63;;
46505;SDS011;32220;49.808;9.968;2024-02-15T20:14:48;6.67;;;4.20;;
46505;SDS011;32220;49.808;9.968;2024-02-15T20:17:20;4.33;;;3.80;;
46505;SDS011;32220;49.808;9.968;2024-02-15T20:19:53;4.97;;;3.80;;
46505;SDS011;32220;49.808;9.968;2024-02-15T20:22:23;3.90;;;3.57;;
46505;SDS011;32220;49.808;9.968;2024-02-15T20:24:56;5.97;;;3.13;;
46505;SDS011;32220;49.808;9.968;2024-02-15T20:30:47;3.23;;;2.50;;
46505;SDS011;32220;49.808;9.968;2024-02-15T20:36:33;4.83;;;3.43;;
46505;SDS011;32220;49.808;9.968;2024-02-15T20:39:16;4.83;;;3.77;;
46505;SDS011;32220;49.808;9.968;2024-02-15T20:41:47;4.20;;;3.17;;
46505;SDS011;32220;49.808;9.968;2024-02-15T20:44:28;5.57;;;3.67;;
46505;SDS011;32220;49.808;9.968;2024-02-15T20:46:56;5.63;;;3.50;;
46505;SDS011;32220;49.808;9.968;2024-02-15T20:49:30;7.33;;;3.93;;
46505;SDS011;32220;49.808;9.968;2024-02-15T20:51:58;4.03;;;3.10;;
46505;SDS011;32220;49.808;9.968;2024-02-15T20:54:26;5.00;;;3.40;;
46505;SDS011;32220;49.808;9.968;2024-02-15T20:57:49;6.13;;;4.40;;
46505;SDS011;32220;49.808;9.968;2024-02-15T21:00:16;4.40;;;3.77;;
46505;SDS011;32220;49.808;9.968;2024-02-15T21:02:45;5.77;;;4.27;;
46505;SDS011;32220;49.808;9.968;2024-02-15T21:05:15;5.80;;;4.60;;
46505;SDS011;32220;49.808;9.968;2024-02-15T21:07:43;4.83;;;3.97;;
46505;SDS011;32220;49.808;9.968;2024-02-15T21:10:11;5.70;;;4.00;;
46505;SDS011;32220;49.808;9.968;2024-02-15T21:12:40;3.57;;;3.10;;
46505;SDS011;32220;49.808;9.968;2024-02-15T21:15:10;3.33;;;2.90;;
46505;SDS011;32220;49.808;9.968;2024-02-15T21:17:39;6.03;;;3.23;;
46505;SDS011;32220;49.808;9.968;2024-02-15T21:20:07;5.50;;;3.30;;
46505;SDS011;32220;49.808;9.968;2024-02-15T21:22:38;3.97;;;2.53;;
46505;SDS011;32220;49.808;9.968;2024-02-15T21:25:05;4.13;;;2.63;;
46505;SDS011;32220;49.808;9.968;2024-02-15T21:27:37;4.37;;;2.90;;
